createdAt,value
2023-04-12T00:00:18.400Z,14.57
2023-04-12T00:02:54.299Z,14.80
2023-04-12T00:05:41.416Z,13.90
2023-04-12T00:08:21.414Z,15.27
2023-04-12T00:11:16.429Z,16.00
2023-04-12T00:14:03.408Z,17.25
2023-04-12T00:16:38.205Z,16.10
2023-04-12T00:19:24.514Z,15.18
2023-04-12T00:21:57.646Z,15.30
2023-04-12T00:24:48.424Z,14.38
2023-04-12T00:27:21.509Z,15.13
2023-04-12T00:30:09.427Z,14.68
2023-04-12T00:32:42.603Z,14.43
2023-04-12T00:35:29.521Z,16.33
2023-04-12T00:38:03.830Z,16.30
2023-04-12T00:40:50.412Z,14.90
2023-04-12T00:43:27.636Z,13.98
2023-04-12T00:46:14.460Z,15.05
2023-04-12T00:48:48.382Z,14.10
2023-04-12T00:51:39.433Z,13.90
2023-04-12T00:54:13.519Z,14.52
2023-04-12T00:57:00.447Z,15.73
2023-04-12T00:59:55.432Z,15.02
2023-04-12T01:02:45.675Z,15.32
2023-04-12T01:05:28.471Z,16.45
2023-04-12T01:08:17.433Z,15.00
2023-04-12T01:11:10.441Z,15.57
2023-04-12T01:14:36.420Z,15.10
2023-04-12T01:17:27.493Z,17.15
2023-04-12T01:20:13.809Z,15.80
2023-04-12T01:23:18.454Z,15.50
2023-04-12T01:25:54.578Z,16.25
2023-04-12T01:28:44.455Z,16.00
2023-04-12T01:31:26.458Z,15.48
2023-04-12T01:34:23.447Z,15.82
2023-04-12T01:37:11.431Z,17.02
2023-04-12T01:39:45.548Z,17.70
2023-04-12T01:42:32.477Z,15.80
2023-04-12T01:45:05.550Z,18.13
2023-04-12T01:47:52.491Z,16.42
2023-04-12T01:50:41.072Z,16.15
2023-04-12T01:53:34.445Z,17.55
2023-04-12T01:56:14.605Z,16.08
2023-04-12T01:59:02.409Z,14.88
2023-04-12T02:01:36.879Z,16.13
2023-04-12T02:04:24.447Z,15.70
2023-04-12T02:06:57.595Z,16.30
2023-04-12T02:09:45.466Z,16.67
2023-04-12T02:12:25.458Z,17.10
2023-04-12T02:15:14.464Z,16.77
2023-04-12T02:17:47.608Z,17.73
2023-04-12T02:20:35.486Z,17.73
2023-04-12T02:23:15.474Z,17.63
2023-04-12T02:26:02.452Z,16.90
2023-04-12T02:28:37.266Z,18.83
2023-04-12T02:31:25.461Z,17.48
2023-04-12T02:33:58.853Z,15.68
2023-04-12T02:36:45.465Z,17.50
2023-04-12T02:39:25.454Z,17.88
2023-04-12T02:42:20.479Z,17.02
2023-04-12T02:45:07.468Z,14.98
2023-04-12T02:47:41.714Z,17.27
2023-04-12T02:50:28.475Z,16.42
2023-04-12T02:53:01.595Z,16.02
2023-04-12T02:55:48.475Z,14.65
2023-04-12T02:58:21.627Z,16.98
2023-04-12T03:01:08.497Z,15.93
2023-04-12T03:03:41.963Z,13.73
2023-04-12T03:06:28.489Z,14.57
2023-04-12T03:09:08.474Z,17.45
2023-04-12T03:12:02.524Z,13.75
2023-04-12T03:14:49.484Z,15.77
2023-04-12T03:17:22.630Z,15.75
2023-04-12T03:20:16.517Z,15.27
2023-04-12T03:22:49.583Z,15.13
2023-04-12T03:25:36.498Z,16.95
2023-04-12T03:28:09.578Z,15.85
2023-04-12T03:30:56.515Z,18.27
2023-04-12T03:33:29.618Z,16.50
2023-04-12T03:36:17.463Z,14.85
2023-04-12T03:38:50.996Z,13.88
2023-04-12T03:41:37.506Z,15.68
2023-04-12T03:44:10.957Z,16.50
2023-04-12T03:46:57.503Z,15.98
2023-04-12T03:49:37.482Z,15.32
2023-04-12T03:52:24.497Z,14.25
2023-04-12T03:54:57.801Z,13.82
2023-04-12T03:57:51.527Z,13.40
2023-04-12T04:00:45.508Z,15.10
2023-04-12T04:03:41.688Z,13.52
2023-04-12T04:06:36.520Z,15.25
2023-04-12T04:09:24.500Z,13.85
2023-04-12T04:11:57.871Z,13.70
2023-04-12T04:14:44.510Z,13.48
2023-04-12T04:17:17.591Z,16.13
2023-04-12T04:20:04.489Z,15.75
2023-04-12T04:22:38.355Z,14.43
2023-04-12T04:25:26.504Z,15.70
2023-04-12T04:27:59.751Z,14.50
2023-04-12T04:30:46.537Z,13.57
2023-04-12T04:33:21.178Z,14.07
2023-04-12T04:36:08.499Z,14.25
2023-04-12T04:38:49.515Z,16.20
2023-04-12T04:41:45.507Z,14.23
2023-04-12T04:44:32.520Z,13.07
2023-04-12T04:47:06.951Z,14.05
2023-04-12T04:49:54.533Z,12.52
2023-04-12T04:52:34.531Z,14.18
2023-04-12T04:55:28.538Z,14.82
2023-04-12T04:58:22.527Z,13.05
2023-04-12T05:01:09.582Z,13.55
2023-04-12T05:03:44.784Z,15.23
2023-04-12T05:06:31.515Z,15.07
2023-04-12T05:09:05.385Z,13.45
2023-04-12T05:11:53.513Z,13.98
2023-04-12T05:14:41.257Z,13.93
2023-04-12T05:17:32.553Z,15.27
2023-04-12T05:20:10.785Z,15.52
2023-04-12T05:22:57.588Z,13.20
2023-04-12T05:25:30.879Z,15.05
2023-04-12T05:28:20.526Z,16.80
2023-04-12T05:30:53.670Z,14.48
2023-04-12T05:33:41.557Z,15.85
2023-04-12T05:36:21.539Z,16.00
2023-04-12T05:39:15.526Z,14.65
2023-04-12T05:42:09.545Z,17.70
2023-04-12T05:44:57.536Z,18.80
2023-04-12T05:47:30.694Z,19.50
2023-04-12T05:50:17.560Z,16.23
2023-04-12T05:52:50.674Z,18.52
2023-04-12T05:55:38.207Z,17.65
2023-04-12T05:58:11.829Z,18.25
2023-04-12T06:01:00.525Z,18.48
2023-04-12T06:03:40.683Z,16.80
2023-04-12T06:06:36.541Z,16.98
2023-04-12T06:09:23.583Z,15.77
2023-04-12T06:12:03.605Z,15.88
2023-04-12T06:14:57.569Z,15.35
2023-04-12T06:17:51.576Z,15.55
2023-04-12T06:20:38.536Z,17.00
2023-04-12T06:23:11.664Z,16.30
2023-04-12T06:25:59.580Z,16.60
2023-04-12T06:28:32.675Z,16.80
2023-04-12T06:31:19.606Z,17.13
2023-04-12T06:33:52.942Z,16.65
2023-04-12T06:36:39.561Z,17.10
2023-04-12T06:39:12.658Z,17.23
2023-04-12T06:41:59.581Z,17.65
2023-04-12T06:44:33.565Z,16.67
2023-04-12T06:47:20.685Z,16.85
2023-04-12T06:49:56.273Z,16.05
2023-04-12T06:52:43.563Z,16.77
2023-04-12T06:55:16.664Z,17.30
2023-04-12T06:58:10.584Z,16.90
2023-04-12T07:01:04.610Z,16.38
2023-04-12T07:03:58.685Z,17.45
2023-04-12T07:06:52.585Z,16.35
2023-04-12T07:09:46.622Z,17.10
2023-04-12T07:12:33.549Z,18.17
2023-04-12T07:15:06.755Z,16.77
2023-04-12T07:17:53.595Z,17.52
2023-04-12T07:20:27.116Z,17.77
2023-04-12T07:23:13.584Z,17.55
2023-04-12T07:25:46.667Z,17.15
2023-04-12T07:28:33.577Z,16.40
2023-04-12T07:31:06.957Z,16.85
2023-04-12T07:33:53.649Z,15.95
2023-04-12T07:36:27.170Z,16.20
2023-04-12T07:39:13.592Z,14.20
2023-04-12T07:41:49.718Z,15.45
2023-04-12T07:44:38.838Z,15.88
2023-04-12T07:47:12.751Z,14.40
2023-04-12T07:49:59.598Z,14.20
2023-04-12T07:52:32.786Z,15.73
2023-04-12T07:55:19.614Z,13.73
2023-04-12T07:57:59.595Z,13.50
2023-04-12T08:00:57.997Z,14.35
2023-04-12T08:03:45.766Z,15.68
2023-04-12T08:06:18.810Z,17.27
2023-04-12T08:09:05.598Z,12.93
2023-04-12T08:11:38.769Z,16.90
2023-04-12T08:14:25.611Z,15.38
2023-04-12T08:16:58.696Z,15.98
2023-04-12T08:19:45.605Z,16.27
2023-04-12T08:22:25.590Z,14.93
2023-04-12T08:25:13.599Z,14.60
2023-04-12T08:27:56.639Z,15.57
2023-04-12T08:30:50.592Z,16.88
2023-04-12T08:33:37.610Z,16.30
2023-04-12T08:36:11.196Z,15.43
2023-04-12T08:38:58.597Z,15.65
2023-04-12T08:41:39.127Z,16.40
2023-04-12T08:44:33.604Z,15.80
2023-04-12T08:47:20.620Z,15.68
2023-04-12T08:50:00.594Z,15.55
2023-04-12T08:52:54.596Z,14.70
2023-04-12T08:55:48.611Z,16.23
2023-04-12T08:58:43.627Z,17.02
2023-04-12T09:01:30.654Z,16.65
2023-04-12T09:04:04.109Z,15.05
2023-04-12T09:06:51.609Z,16.23
2023-04-12T09:09:24.702Z,18.27
2023-04-12T09:12:15.620Z,15.73
2023-04-12T09:14:48.797Z,15.45
2023-04-12T09:17:35.677Z,15.60
2023-04-12T09:20:32.622Z,15.40
2023-04-12T09:23:44.622Z,15.93
2023-04-12T09:26:35.632Z,14.88
2023-04-12T09:29:09.926Z,14.35
2023-04-12T09:32:12.602Z,13.25
2023-04-12T09:35:08.615Z,14.93
2023-04-12T09:38:04.632Z,14.65
2023-04-12T09:40:44.608Z,16.38
2023-04-12T09:43:53.639Z,14.75
2023-04-12T09:46:56.746Z,16.60
2023-04-12T09:49:42.845Z,15.65
2023-04-12T09:52:31.335Z,14.80
2023-04-12T09:55:12.613Z,15.85
2023-04-12T09:58:08.623Z,15.95
2023-04-12T10:01:02.659Z,14.55
2023-04-12T10:03:56.854Z,15.45
2023-04-12T10:06:43.682Z,15.57
2023-04-12T10:09:17.716Z,16.60
2023-04-12T10:12:06.630Z,16.77
2023-04-12T10:14:39.681Z,16.27
2023-04-12T10:17:26.724Z,17.48
2023-04-12T10:20:00.817Z,17.70
2023-04-12T10:22:58.640Z,16.35
2023-04-12T10:25:41.664Z,20.27
2023-04-12T10:28:35.645Z,16.50
2023-04-12T10:31:39.701Z,15.82
2023-04-12T10:34:13.767Z,17.02
2023-04-12T10:37:07.728Z,15.10
2023-04-12T10:39:42.978Z,13.48
2023-04-12T10:42:37.693Z,15.90
2023-04-12T10:45:43.809Z,14.80
2023-04-12T10:48:57.794Z,14.95
2023-04-12T10:51:33.276Z,14.88
2023-04-12T10:54:25.688Z,15.48
2023-04-12T10:57:05.698Z,15.48
2023-04-12T11:00:07.672Z,16.65
2023-04-12T11:03:21.725Z,15.48
2023-04-12T11:06:27.056Z,16.30
2023-04-12T11:09:25.664Z,16.27
2023-04-12T11:12:21.081Z,15.75
2023-04-12T11:15:10.681Z,15.23
2023-04-12T11:17:43.855Z,15.35
2023-04-12T11:20:33.669Z,16.23
2023-04-12T11:23:10.617Z,14.50
2023-04-12T11:26:00.692Z,16.95
2023-04-12T11:28:35.947Z,19.52
2023-04-12T11:31:27.742Z,16.10
2023-04-12T11:34:01.077Z,17.52
2023-04-12T11:36:48.766Z,15.45
2023-04-12T11:39:21.922Z,16.30
2023-04-12T11:42:09.693Z,14.27
2023-04-12T11:44:56.012Z,13.15
2023-04-12T11:47:38.743Z,14.75
2023-04-12T11:50:48.366Z,14.77
2023-04-12T11:53:45.696Z,14.70
2023-04-12T11:56:33.691Z,13.68
2023-04-12T11:59:06.988Z,13.85
2023-04-12T12:01:57.737Z,13.80
2023-04-12T12:04:31.935Z,13.90
2023-04-12T12:07:21.552Z,14.20
2023-04-12T12:10:03.797Z,14.52
2023-04-12T12:12:57.814Z,14.82
2023-04-12T12:15:54.789Z,14.60
2023-04-12T12:18:53.672Z,14.55
2023-04-12T12:21:40.697Z,13.48
2023-04-12T12:24:21.683Z,14.38
2023-04-12T12:27:09.736Z,13.35
2023-04-12T12:29:51.684Z,14.63
2023-04-12T12:32:43.750Z,13.70
2023-04-12T12:35:19.438Z,12.23
2023-04-12T12:38:06.683Z,11.60
2023-04-12T12:40:40.568Z,12.73
2023-04-12T12:43:27.693Z,14.73
2023-04-12T12:46:07.894Z,14.45
2023-04-12T12:48:48.735Z,14.70
2023-04-12T12:51:35.682Z,12.90
2023-04-12T12:54:40.544Z,13.25
2023-04-12T12:57:27.699Z,14.00
2023-04-12T13:00:01.192Z,13.15
2023-04-12T13:02:51.086Z,11.65
2023-04-12T13:05:31.738Z,12.57
2023-04-12T13:08:18.717Z,13.27
2023-04-12T13:10:58.699Z,13.38
2023-04-12T13:13:52.727Z,14.18
2023-04-12T13:16:39.754Z,14.60
2023-04-12T13:19:19.723Z,14.00
2023-04-12T13:22:13.711Z,19.02
2023-04-12T13:25:01.781Z,15.48
2023-04-12T13:27:34.858Z,15.15
2023-04-12T13:30:21.730Z,13.18
2023-04-12T13:32:55.322Z,13.63
2023-04-12T13:35:41.723Z,15.27
2023-04-12T13:38:21.732Z,14.27
2023-04-12T13:41:08.790Z,14.98
2023-04-12T13:43:48.771Z,15.57
2023-04-12T13:46:42.774Z,14.27
2023-04-12T13:49:36.775Z,12.02
2023-04-12T13:52:23.799Z,13.88
2023-04-12T13:54:57.888Z,14.88
2023-04-12T13:57:44.779Z,13.77
2023-04-12T14:00:19.615Z,15.20
2023-04-12T14:03:06.898Z,15.82
2023-04-12T14:05:46.777Z,15.10
2023-04-12T14:08:41.726Z,14.98
2023-04-12T14:11:38.777Z,17.00
2023-04-12T14:14:32.798Z,13.75
2023-04-12T14:17:19.928Z,15.43
2023-04-12T14:19:52.910Z,13.88
2023-04-12T14:22:39.745Z,11.93
2023-04-12T14:25:13.948Z,11.30
2023-04-12T14:28:00.782Z,12.52
2023-04-12T14:30:33.876Z,13.88
2023-04-12T14:33:13.791Z,14.52
2023-04-12T14:35:53.886Z,12.23
2023-04-12T14:38:35.800Z,12.23
2023-04-12T14:41:15.770Z,13.25
2023-04-12T14:43:57.055Z,13.35
2023-04-12T14:46:50.832Z,12.88
2023-04-12T14:49:37.794Z,13.13
2023-04-12T14:52:17.802Z,12.95
2023-04-12T14:55:04.779Z,12.93
2023-04-12T14:57:44.775Z,12.70
2023-04-12T15:00:38.777Z,12.75
2023-04-12T15:03:32.848Z,12.10
2023-04-12T15:06:27.799Z,12.88
2023-04-12T15:09:19.788Z,12.02
2023-04-12T15:12:07.795Z,11.98
2023-04-12T15:15:06.214Z,11.73
2023-04-12T15:17:52.829Z,12.90
2023-04-12T15:20:25.908Z,13.25
2023-04-12T15:23:15.799Z,12.38
2023-04-12T15:25:55.799Z,13.40
2023-04-12T15:28:49.845Z,12.13
2023-04-12T15:31:36.785Z,14.27
2023-04-12T15:34:16.777Z,13.38
2023-04-12T15:37:11.830Z,14.52
2023-04-12T15:39:59.846Z,12.88
2023-04-12T15:42:39.805Z,14.20
2023-04-12T15:45:33.833Z,13.50
2023-04-12T15:48:20.810Z,15.60
2023-04-12T15:51:02.806Z,13.32
2023-04-12T15:53:57.537Z,14.48
2023-04-12T15:56:44.880Z,13.88
2023-04-12T15:59:18.840Z,14.25
2023-04-12T16:02:08.638Z,14.63
2023-04-12T16:04:50.859Z,14.75
2023-04-12T16:07:47.859Z,16.20
2023-04-12T16:10:34.786Z,15.05
2023-04-12T16:13:10.220Z,17.27
2023-04-12T16:15:56.855Z,19.63
2023-04-12T16:18:37.804Z,18.58
2023-04-12T16:21:32.804Z,20.00
2023-04-12T16:24:20.802Z,22.92
2023-04-12T16:27:00.837Z,17.83
2023-04-12T16:29:54.799Z,16.98
2023-04-12T16:32:42.805Z,15.88
2023-04-12T16:35:16.487Z,15.50
2023-04-12T16:38:02.804Z,15.13
2023-04-12T16:40:35.951Z,17.33
2023-04-12T16:43:23.838Z,16.00
2023-04-12T16:45:56.926Z,16.02
2023-04-12T16:48:47.877Z,16.75
2023-04-12T16:51:21.126Z,14.55
2023-04-12T16:54:07.861Z,14.95
2023-04-12T16:56:47.856Z,15.50
2023-04-12T16:59:41.850Z,16.33
2023-04-12T17:02:28.944Z,15.88
2023-04-12T17:05:10.878Z,17.75
2023-04-12T17:08:05.895Z,17.25
2023-04-12T17:11:00.813Z,17.02
2023-04-12T17:13:50.785Z,17.92
2023-04-12T17:16:24.853Z,16.42
2023-04-12T17:19:11.864Z,16.70
2023-04-12T17:21:55.848Z,21.80
2023-04-12T17:24:49.848Z,23.10
2023-04-12T17:27:43.849Z,19.35
2023-04-12T17:30:19.036Z,19.42
2023-04-12T17:33:07.937Z,19.60
2023-04-12T17:35:42.197Z,17.75
2023-04-12T17:38:28.918Z,20.40
2023-04-12T17:41:02.476Z,20.15
2023-04-12T17:43:48.886Z,22.02
2023-04-12T17:46:23.160Z,22.95
2023-04-12T17:49:11.877Z,22.02
2023-04-12T17:51:44.964Z,23.17
2023-04-12T17:54:31.878Z,24.58
2023-04-12T17:57:04.973Z,22.60
2023-04-12T17:59:58.877Z,26.80
2023-04-12T18:02:59.003Z,26.20
2023-04-12T18:05:45.919Z,23.33
2023-04-12T18:08:19.158Z,23.55
2023-04-12T18:11:06.922Z,23.02
2023-04-12T18:13:40.006Z,23.15
2023-04-12T18:16:26.960Z,23.60
2023-04-12T18:19:01.302Z,21.23
2023-04-12T18:21:47.908Z,23.23
2023-04-12T18:24:21.966Z,22.10
2023-04-12T18:27:10.885Z,22.80
2023-04-12T18:29:43.991Z,22.52
2023-04-12T18:32:30.916Z,25.50
2023-04-12T18:35:05.055Z,25.38
2023-04-12T18:37:51.936Z,26.55
2023-04-12T18:40:25.018Z,26.25
2023-04-12T18:43:12.885Z,24.75
2023-04-12T18:45:47.072Z,24.88
2023-04-12T18:48:33.906Z,25.08
2023-04-12T18:51:07.421Z,22.73
2023-04-12T18:53:54.903Z,25.33
2023-04-12T18:56:35.018Z,25.15
2023-04-12T18:59:28.988Z,25.55
2023-04-12T19:02:16.917Z,26.95
2023-04-12T19:04:51.321Z,26.20
2023-04-12T19:07:38.891Z,23.35
2023-04-12T19:10:13.323Z,26.77
2023-04-12T19:13:01.055Z,24.20
2023-04-12T19:15:35.244Z,25.00
2023-04-12T19:18:24.642Z,24.10
2023-04-12T19:21:07.391Z,23.42
2023-04-12T19:24:01.645Z,23.20
2023-04-12T19:26:55.104Z,23.13
2023-04-12T19:29:29.300Z,21.85
2023-04-12T19:32:18.908Z,21.98
2023-04-12T19:34:54.347Z,22.33
2023-04-12T19:37:42.922Z,24.23
2023-04-12T19:40:19.215Z,22.25
2023-04-12T19:43:06.930Z,22.40
2023-04-12T19:45:41.423Z,20.67
2023-04-12T19:48:28.921Z,22.92
2023-04-12T19:51:04.460Z,23.25
2023-04-12T19:53:54.930Z,23.90
2023-04-12T19:56:37.933Z,23.10
2023-04-12T19:59:33.934Z,24.65
2023-04-12T20:02:20.994Z,25.80
2023-04-12T20:05:03.996Z,26.95
2023-04-12T20:07:51.964Z,26.30
2023-04-12T20:10:26.249Z,24.65
2023-04-12T20:13:44.943Z,24.52
2023-04-12T20:16:25.960Z,22.63
2023-04-12T20:19:19.956Z,22.25
2023-04-12T20:22:09.966Z,25.05
2023-04-12T20:24:43.080Z,25.42
2023-04-12T20:27:32.306Z,26.52
2023-04-12T20:30:06.069Z,25.88
2023-04-12T20:32:54.064Z,25.50
2023-04-12T20:35:28.195Z,22.33
2023-04-12T20:38:14.944Z,21.70
2023-04-12T20:40:48.074Z,23.15
2023-04-12T20:43:34.945Z,22.40
2023-04-12T20:46:14.599Z,25.83
2023-04-12T20:49:02.936Z,23.77
2023-04-12T20:51:36.021Z,26.27
2023-04-12T20:54:22.953Z,23.00
2023-04-12T20:57:05.042Z,21.42
2023-04-12T20:59:59.914Z,21.60
2023-04-12T21:02:54.102Z,23.73
2023-04-12T21:05:40.945Z,22.73
2023-04-12T21:08:20.935Z,22.77
2023-04-12T21:11:14.985Z,20.13
2023-04-12T21:14:01.940Z,21.52
2023-04-12T21:16:44.962Z,21.80
2023-04-12T21:19:38.975Z,22.65
2023-04-12T21:22:25.926Z,24.40
2023-04-12T21:25:05.917Z,23.75
2023-04-12T21:27:53.943Z,22.88
2023-04-12T21:30:27.108Z,22.83
2023-04-12T21:33:14.991Z,20.83
2023-04-12T21:35:55.078Z,20.10
2023-04-12T21:38:48.941Z,21.58
2023-04-12T21:41:35.942Z,21.85
2023-04-12T21:44:18.939Z,20.30
2023-04-12T21:47:05.984Z,19.40
2023-04-12T21:49:45.948Z,20.20
2023-04-12T21:52:39.938Z,19.75
2023-04-12T21:55:27.942Z,20.85
2023-04-12T21:58:01.027Z,21.05
2023-04-12T22:00:48.021Z,22.70
2023-04-12T22:03:21.522Z,21.55
2023-04-12T22:06:07.946Z,22.80
2023-04-12T22:08:44.114Z,22.08
2023-04-12T22:11:30.999Z,21.60
2023-04-12T22:14:05.212Z,22.33
2023-04-12T22:16:52.015Z,20.80
2023-04-12T22:19:25.261Z,21.55
2023-04-12T22:22:11.983Z,20.85
2023-04-12T22:24:51.960Z,21.20
2023-04-12T22:27:45.943Z,20.50
2023-04-12T22:30:33.985Z,20.95
2023-04-12T22:33:15.011Z,22.25
2023-04-12T22:36:08.983Z,21.63
2023-04-12T22:38:56.013Z,20.45
2023-04-12T22:41:35.252Z,20.50
2023-04-12T22:44:23.920Z,21.90
2023-04-12T22:47:00.150Z,22.85
2023-04-12T22:49:56.995Z,22.80
2023-04-12T22:52:30.673Z,22.40
2023-04-12T22:55:25.001Z,21.77
2023-04-12T22:57:58.055Z,22.73
2023-04-12T23:00:51.953Z,23.13
2023-04-12T23:03:48.043Z,21.23
2023-04-12T23:06:37.024Z,21.38
2023-04-12T23:09:10.077Z,20.92
2023-04-12T23:11:57.995Z,19.13
2023-04-12T23:14:37.976Z,20.85
2023-04-12T23:17:33.139Z,20.38
2023-04-12T23:20:20.988Z,22.15
2023-04-12T23:22:57.761Z,22.85
2023-04-12T23:25:47.953Z,18.98
2023-04-12T23:28:24.369Z,21.95
2023-04-12T23:31:14.014Z,20.27
2023-04-12T23:33:47.275Z,20.67
2023-04-12T23:36:34.037Z,20.90
2023-04-12T23:39:08.636Z,19.13
2023-04-12T23:41:55.006Z,20.17
2023-04-12T23:44:28.213Z,21.40
2023-04-12T23:47:15.020Z,20.30
2023-04-12T23:49:48.091Z,20.88
2023-04-12T23:52:35.013Z,19.60
2023-04-12T23:55:08.542Z,20.05
2023-04-12T23:57:54.980Z,21.83
